« Back
NWS Peachtree City, Ga » Text Product » ATL Terminal Aerodrome Forecast


Printer-friendly Version
Current Version              Previous Versions:   1  2  3  4  5  6  7  8  9  

Terminal Aerodrome Forecast

039
FTUS42 KFFC 240900 AAB
TAFATL
TAF AMD
KATL 240930Z 2410/2512 01005KT P6SM SKC
     FM241300 09009KT P6SM SKC
     FM241800 14005KT P6SM SCT060
     FM250000 16006KT P6SM BKN060
     FM250900 20006KT P6SM BKN040
     FM251100 21006KT P6SM BKN025=



USA.gov is the U.S. government's official web portal to all federal, state and local government web resources and services.